createdAt,value
2022-10-01T00:29:09.522Z,100399.37
2022-10-01T00:59:12.890Z,100406.53
2022-10-01T01:29:16.626Z,100393.19
2022-10-01T01:59:20.769Z,100366.03
2022-10-01T02:29:24.091Z,100336.92
2022-10-01T02:59:27.499Z,100313.13
2022-10-01T03:29:32.342Z,100296.13
2022-10-01T03:59:35.593Z,100281.76
2022-10-01T04:29:40.335Z,100284.78
2022-10-01T04:59:44.264Z,100297.09
2022-10-01T05:29:47.689Z,100287.67
2022-10-01T05:59:50.805Z,100257.98
2022-10-01T06:29:54.968Z,100249.20
2022-10-01T06:59:58.156Z,100212.09
2022-10-01T07:30:01.495Z,100187.12
2022-10-01T08:00:05.554Z,100143.59
2022-10-01T08:30:08.623Z,100102.18
2022-10-01T09:00:11.849Z,100077.25
2022-10-01T09:30:15.513Z,100022.89
2022-10-01T10:00:18.359Z,100004.62
2022-10-01T10:30:23.010Z,99961.96
2022-10-01T11:00:25.869Z,99927.13
2022-10-01T11:30:29.880Z,99874.78
2022-10-01T12:00:33.072Z,99827.83
2022-10-01T12:30:36.562Z,99790.97
2022-10-01T13:00:39.816Z,99754.38
2022-10-01T13:30:43.360Z,99720.31
2022-10-01T14:00:46.736Z,99712.38
2022-10-01T14:30:50.844Z,99748.15
2022-10-01T15:00:54.020Z,99738.58
2022-10-01T15:30:57.345Z,99716.36
2022-10-01T16:01:00.672Z,99690.57
2022-10-01T16:31:04.211Z,99689.02
2022-10-01T17:01:07.907Z,99693.79
2022-10-01T17:31:14.391Z,99698.88
2022-10-01T18:01:21.294Z,99712.84
2022-10-01T18:31:24.616Z,99719.94
2022-10-01T19:01:27.577Z,99712.50
2022-10-01T19:31:31.616Z,99732.45
2022-10-01T20:01:34.452Z,99739.39
2022-10-01T20:31:38.883Z,99772.49
2022-10-01T21:01:41.761Z,99773.33
2022-10-01T21:31:46.213Z,99791.57
2022-10-01T22:01:49.059Z,99810.83
2022-10-01T22:31:53.050Z,99854.34
2022-10-01T23:01:55.970Z,99877.16
2022-10-01T23:31:59.903Z,99920.01
